sensor_id;sensor_type;location;lat;lon;timestamp;pressure;altitude;pressure_sealevel;temperature;humidity
62655;BME280;48717;55.556;37.816;2023-04-30T00:00:01;99799.16;;;4.15;82.86
62655;BME280;48717;55.556;37.816;2023-04-30T00:02:37;99795.47;;;4.07;83.00
62655;BME280;48717;55.556;37.816;2023-04-30T00:05:04;99807.00;;;4.17;82.63
62655;BME280;48717;55.556;37.816;2023-04-30T00:07:32;99812.25;;;4.18;83.52
62655;BME280;48717;55.556;37.816;2023-04-30T00:09:59;99790.31;;;4.10;82.72
62655;BME280;48717;55.556;37.816;2023-04-30T00:12:30;99776.94;;;3.96;83.59
62655;BME280;48717;55.556;37.816;2023-04-30T00:14:57;99818.41;;;4.21;83.19
62655;BME280;48717;55.556;37.816;2023-04-30T00:17:26;99791.13;;;4.08;83.26
62655;BME280;48717;55.556;37.816;2023-04-30T00:19:53;99806.94;;;4.14;83.77
62655;BME280;48717;55.556;37.816;2023-04-30T00:22:20;99791.56;;;3.89;83.80
62655;BME280;48717;55.556;37.816;2023-04-30T00:24:47;99806.50;;;3.97;84.60
62655;BME280;48717;55.556;37.816;2023-04-30T00:27:15;99796.78;;;3.89;84.69
62655;BME280;48717;55.556;37.816;2023-04-30T00:29:42;99826.84;;;4.10;85.42
62655;BME280;48717;55.556;37.816;2023-04-30T00:32:09;99821.56;;;4.07;85.37
62655;BME280;48717;55.556;37.816;2023-04-30T00:34:36;99819.09;;;4.13;85.72
62655;BME280;48717;55.556;37.816;2023-04-30T00:37:04;99824.28;;;4.12;85.77
62655;BME280;48717;55.556;37.816;2023-04-30T00:39:31;99802.22;;;3.99;84.74
62655;BME280;48717;55.556;37.816;2023-04-30T00:41:58;99811.97;;;4.06;84.59
62655;BME280;48717;55.556;37.816;2023-04-30T00:44:26;99811.03;;;4.04;84.40
62655;BME280;48717;55.556;37.816;2023-04-30T00:46:53;99805.81;;;4.04;84.35
62655;BME280;48717;55.556;37.816;2023-04-30T00:49:21;99797.78;;;3.95;84.27
62655;BME280;48717;55.556;37.816;2023-04-30T00:51:49;99797.69;;;3.91;84.14
62655;BME280;48717;55.556;37.816;2023-04-30T00:54:19;99818.81;;;4.02;84.03
62655;BME280;48717;55.556;37.816;2023-04-30T00:56:47;99817.69;;;3.92;84.89
62655;BME280;48717;55.556;37.816;2023-04-30T00:59:15;99788.53;;;3.74;84.97
62655;BME280;48717;55.556;37.816;2023-04-30T01:01:42;99808.78;;;3.83;86.38
62655;BME280;48717;55.556;37.816;2023-04-30T01:04:10;99825.47;;;3.89;86.76
62655;BME280;48717;55.556;37.816;2023-04-30T01:06:38;99816.59;;;3.83;86.94
62655;BME280;48717;55.556;37.816;2023-04-30T01:09:06;99826.13;;;3.82;86.49
62655;BME280;48717;55.556;37.816;2023-04-30T01:14:22;99815.38;;;3.70;89.10
62655;BME280;48717;55.556;37.816;2023-04-30T01:17:04;99834.63;;;3.75;87.72
62655;BME280;48717;55.556;37.816;2023-04-30T01:19:41;99830.31;;;3.75;88.40
62655;BME280;48717;55.556;37.816;2023-04-30T01:30:04;99813.38;;;3.59;88.75
62655;BME280;48717;55.556;37.816;2023-04-30T01:32:32;99822.19;;;3.64;88.72
62655;BME280;48717;55.556;37.816;2023-04-30T01:34:59;99823.09;;;3.65;88.99
62655;BME280;48717;55.556;37.816;2023-04-30T01:43:11;99823.94;;;3.65;87.90
62655;BME280;48717;55.556;37.816;2023-04-30T01:49:02;99819.28;;;3.53;88.73
62655;BME280;48717;55.556;37.816;2023-04-30T01:51:40;99831.78;;;3.65;89.45
62655;BME280;48717;55.556;37.816;2023-04-30T01:57:02;99826.44;;;3.61;89.01
62655;BME280;48717;55.556;37.816;2023-04-30T01:59:32;99808.16;;;3.59;89.05
62655;BME280;48717;55.556;37.816;2023-04-30T02:02:01;99807.59;;;3.71;88.20
62655;BME280;48717;55.556;37.816;2023-04-30T02:04:30;99820.81;;;3.79;87.25
62655;BME280;48717;55.556;37.816;2023-04-30T02:06:57;99809.56;;;3.80;87.49
62655;BME280;48717;55.556;37.816;2023-04-30T02:09:24;99810.41;;;3.79;86.57
62655;BME280;48717;55.556;37.816;2023-04-30T02:11:52;99811.28;;;3.79;86.30
62655;BME280;48717;55.556;37.816;2023-04-30T02:14:19;99796.28;;;3.71;86.49
62655;BME280;48717;55.556;37.816;2023-04-30T02:17:06;99805.13;;;3.76;86.84
62655;BME280;48717;55.556;37.816;2023-04-30T02:19:33;99788.28;;;3.64;87.53
62655;BME280;48717;55.556;37.816;2023-04-30T02:22:00;99778.56;;;3.59;87.54
62655;BME280;48717;55.556;37.816;2023-04-30T02:24:28;99794.66;;;3.74;88.08
62655;BME280;48717;55.556;37.816;2023-04-30T02:26:55;99792.91;;;3.75;88.14
62655;BME280;48717;55.556;37.816;2023-04-30T02:29:22;99794.78;;;3.81;88.03
62655;BME280;48717;55.556;37.816;2023-04-30T02:31:49;99780.88;;;3.80;87.40
62655;BME280;48717;55.556;37.816;2023-04-30T02:34:16;99763.31;;;3.73;87.30
62655;BME280;48717;55.556;37.816;2023-04-30T02:36:44;99793.06;;;3.81;87.50
62655;BME280;48717;55.556;37.816;2023-04-30T02:39:11;99777.91;;;3.66;88.43
62655;BME280;48717;55.556;37.816;2023-04-30T02:41:38;99770.75;;;3.57;89.78
62655;BME280;48717;55.556;37.816;2023-04-30T02:44:05;99794.34;;;3.63;89.75
62655;BME280;48717;55.556;37.816;2023-04-30T02:46:33;99788.81;;;3.51;88.75
62655;BME280;48717;55.556;37.816;2023-04-30T02:49:00;99784.75;;;3.30;88.67
62655;BME280;48717;55.556;37.816;2023-04-30T02:51:27;99778.16;;;3.11;89.17
62655;BME280;48717;55.556;37.816;2023-04-30T02:53:54;99814.09;;;3.23;90.56
62655;BME280;48717;55.556;37.816;2023-04-30T02:56:22;99810.41;;;3.15;93.02
62655;BME280;48717;55.556;37.816;2023-04-30T02:58:49;99781.22;;;2.96;93.31
62655;BME280;48717;55.556;37.816;2023-04-30T03:01:16;99753.84;;;2.81;93.60
62655;BME280;48717;55.556;37.816;2023-04-30T03:03:43;99802.44;;;3.10;93.48
62655;BME280;48717;55.556;37.816;2023-04-30T03:06:10;99809.38;;;3.09;94.44
62655;BME280;48717;55.556;37.816;2023-04-30T03:08:37;99789.44;;;3.11;94.37
62655;BME280;48717;55.556;37.816;2023-04-30T03:11:05;99795.72;;;3.18;93.84
62655;BME280;48717;55.556;37.816;2023-04-30T03:13:32;99791.31;;;3.16;94.30
62655;BME280;48717;55.556;37.816;2023-04-30T03:16:00;99789.81;;;3.24;94.18
62655;BME280;48717;55.556;37.816;2023-04-30T03:18:28;99768.72;;;3.15;93.75
62655;BME280;48717;55.556;37.816;2023-04-30T03:20:56;99783.81;;;3.26;93.03
62655;BME280;48717;55.556;37.816;2023-04-30T03:23:26;99755.94;;;3.24;92.88
62655;BME280;48717;55.556;37.816;2023-04-30T03:25:53;99787.03;;;3.50;92.19
62655;BME280;48717;55.556;37.816;2023-04-30T03:28:21;99774.91;;;3.52;92.10
62655;BME280;48717;55.556;37.816;2023-04-30T03:30:48;99752.22;;;3.48;91.35
62655;BME280;48717;55.556;37.816;2023-04-30T03:33:15;99745.44;;;3.53;91.47
62655;BME280;48717;55.556;37.816;2023-04-30T03:35:42;99770.38;;;3.77;91.19
62655;BME280;48717;55.556;37.816;2023-04-30T03:38:10;99755.59;;;3.77;90.43
62655;BME280;48717;55.556;37.816;2023-04-30T03:40:37;99737.38;;;3.79;90.46
62655;BME280;48717;55.556;37.816;2023-04-30T03:43:04;99735.06;;;3.91;89.47
62655;BME280;48717;55.556;37.816;2023-04-30T03:45:31;99757.41;;;4.15;89.11
62655;BME280;48717;55.556;37.816;2023-04-30T03:47:59;99759.47;;;4.29;88.70
62655;BME280;48717;55.556;37.816;2023-04-30T03:50:26;99756.84;;;4.29;87.88
62655;BME280;48717;55.556;37.816;2023-04-30T03:52:55;99755.34;;;4.40;87.62
62655;BME280;48717;55.556;37.816;2023-04-30T03:55:23;99758.03;;;4.43;87.42
62655;BME280;48717;55.556;37.816;2023-04-30T03:57:51;99751.00;;;4.39;87.33
62655;BME280;48717;55.556;37.816;2023-04-30T04:00:18;99738.84;;;4.41;87.11
62655;BME280;48717;55.556;37.816;2023-04-30T04:02:48;99742.38;;;4.43;87.38
62655;BME280;48717;55.556;37.816;2023-04-30T04:05:16;99752.13;;;4.51;87.45
62655;BME280;48717;55.556;37.816;2023-04-30T04:07:44;99731.84;;;4.40;86.39
62655;BME280;48717;55.556;37.816;2023-04-30T04:10:12;99714.50;;;4.42;86.79
62655;BME280;48717;55.556;37.816;2023-04-30T04:12:39;99742.94;;;4.68;86.72
62655;BME280;48717;55.556;37.816;2023-04-30T04:15:07;99745.78;;;4.79;86.46
62655;BME280;48717;55.556;37.816;2023-04-30T04:17:35;99736.47;;;4.92;85.29
62655;BME280;48717;55.556;37.816;2023-04-30T04:20:02;99739.47;;;5.13;84.50
62655;BME280;48717;55.556;37.816;2023-04-30T04:22:34;99749.44;;;5.34;83.11
62655;BME280;48717;55.556;37.816;2023-04-30T04:25:01;99733.94;;;5.43;82.05
62655;BME280;48717;55.556;37.816;2023-04-30T04:27:30;99736.06;;;5.63;81.62
62655;BME280;48717;55.556;37.816;2023-04-30T04:29:57;99737.28;;;5.84;80.25
62655;BME280;48717;55.556;37.816;2023-04-30T04:32:25;99699.78;;;5.85;79.40
62655;BME280;48717;55.556;37.816;2023-04-30T04:34:53;99690.44;;;6.01;78.39
62655;BME280;48717;55.556;37.816;2023-04-30T04:37:21;99739.97;;;6.44;77.25
62655;BME280;48717;55.556;37.816;2023-04-30T04:39:48;99707.59;;;6.39;77.77
62655;BME280;48717;55.556;37.816;2023-04-30T04:42:16;99732.47;;;6.69;78.10
62655;BME280;48717;55.556;37.816;2023-04-30T04:44:44;99714.34;;;6.86;75.03
62655;BME280;48717;55.556;37.816;2023-04-30T04:47:11;99699.63;;;6.96;74.49
62655;BME280;48717;55.556;37.816;2023-04-30T04:49:38;99734.19;;;7.40;72.55
62655;BME280;48717;55.556;37.816;2023-04-30T04:52:07;99706.31;;;7.53;71.00
62655;BME280;48717;55.556;37.816;2023-04-30T04:54:34;99726.75;;;7.87;70.35
62655;BME280;48717;55.556;37.816;2023-04-30T04:57:01;99710.94;;;7.80;69.16
62655;BME280;48717;55.556;37.816;2023-04-30T04:59:29;99712.66;;;7.75;68.49
62655;BME280;48717;55.556;37.816;2023-04-30T05:01:56;99707.53;;;7.88;69.20
62655;BME280;48717;55.556;37.816;2023-04-30T05:04:23;99689.19;;;7.95;67.93
62655;BME280;48717;55.556;37.816;2023-04-30T05:06:50;99692.78;;;8.05;67.84
62655;BME280;48717;55.556;37.816;2023-04-30T05:09:19;99695.63;;;8.43;66.45
62655;BME280;48717;55.556;37.816;2023-04-30T05:11:46;99693.91;;;8.49;64.13
62655;BME280;48717;55.556;37.816;2023-04-30T05:14:15;99714.19;;;8.66;64.00
62655;BME280;48717;55.556;37.816;2023-04-30T05:16:43;99680.94;;;8.78;63.40
62655;BME280;48717;55.556;37.816;2023-04-30T05:19:10;99695.09;;;9.19;63.92
62655;BME280;48717;55.556;37.816;2023-04-30T05:21:37;99690.72;;;9.27;62.12
62655;BME280;48717;55.556;37.816;2023-04-30T05:24:06;99701.28;;;9.43;62.22
62655;BME280;48717;55.556;37.816;2023-04-30T05:26:33;99696.06;;;9.61;62.25
62655;BME280;48717;55.556;37.816;2023-04-30T05:29:00;99704.81;;;9.73;62.14
62655;BME280;48717;55.556;37.816;2023-04-30T05:31:27;99689.03;;;9.73;61.39
62655;BME280;48717;55.556;37.816;2023-04-30T05:33:54;99692.53;;;9.59;60.95
62655;BME280;48717;55.556;37.816;2023-04-30T05:36:21;99665.34;;;9.54;61.77
62655;BME280;48717;55.556;37.816;2023-04-30T05:38:48;99673.22;;;9.73;61.64
62655;BME280;48717;55.556;37.816;2023-04-30T05:41:16;99676.72;;;10.00;61.18
62655;BME280;48717;55.556;37.816;2023-04-30T05:43:43;99666.16;;;10.22;60.26
62655;BME280;48717;55.556;37.816;2023-04-30T05:46:10;99685.44;;;10.55;59.42
62655;BME280;48717;55.556;37.816;2023-04-30T05:48:37;99676.66;;;10.53;58.31
62655;BME280;48717;55.556;37.816;2023-04-30T05:51:05;99691.41;;;11.05;58.04
62655;BME280;48717;55.556;37.816;2023-04-30T05:53:32;99671.09;;;11.20;55.43
62655;BME280;48717;55.556;37.816;2023-04-30T05:56:00;99697.44;;;11.26;56.47
62655;BME280;48717;55.556;37.816;2023-04-30T05:58:27;99689.22;;;11.73;54.23
62655;BME280;48717;55.556;37.816;2023-04-30T06:00:54;99682.88;;;11.94;52.98
62655;BME280;48717;55.556;37.816;2023-04-30T06:03:21;99681.75;;;12.25;50.39
62655;BME280;48717;55.556;37.816;2023-04-30T06:05:49;99698.09;;;12.63;48.76
62655;BME280;48717;55.556;37.816;2023-04-30T06:08:16;99706.63;;;12.87;48.70
62655;BME280;48717;55.556;37.816;2023-04-30T06:10:44;99681.91;;;12.88;47.91
62655;BME280;48717;55.556;37.816;2023-04-30T06:13:11;99695.72;;;13.12;46.47
62655;BME280;48717;55.556;37.816;2023-04-30T06:15:40;99674.31;;;13.27;46.31
62655;BME280;48717;55.556;37.816;2023-04-30T06:18:07;99689.78;;;13.58;46.62
62655;BME280;48717;55.556;37.816;2023-04-30T06:20:35;99686.97;;;13.68;46.22
62655;BME280;48717;55.556;37.816;2023-04-30T06:23:02;99673.66;;;13.74;46.80
62655;BME280;48717;55.556;37.816;2023-04-30T06:25:29;99683.38;;;13.72;44.82
62655;BME280;48717;55.556;37.816;2023-04-30T06:27:56;99678.25;;;13.63;42.78
62655;BME280;48717;55.556;37.816;2023-04-30T06:30:24;99678.34;;;13.56;42.94
62655;BME280;48717;55.556;37.816;2023-04-30T06:32:51;99689.91;;;13.49;41.98
62655;BME280;48717;55.556;37.816;2023-04-30T06:35:18;99685.34;;;13.61;41.21
62655;BME280;48717;55.556;37.816;2023-04-30T06:37:45;99680.91;;;13.60;40.50
62655;BME280;48717;55.556;37.816;2023-04-30T06:40:13;99691.28;;;13.75;40.64
62655;BME280;48717;55.556;37.816;2023-04-30T06:42:40;99649.53;;;13.33;40.56
62655;BME280;48717;55.556;37.816;2023-04-30T06:45:12;99674.25;;;13.34;41.01
62655;BME280;48717;55.556;37.816;2023-04-30T06:47:44;99680.47;;;13.31;40.78
62655;BME280;48717;55.556;37.816;2023-04-30T06:50:17;99650.00;;;13.00;40.46
62655;BME280;48717;55.556;37.816;2023-04-30T06:52:47;99677.31;;;13.02;40.09
62655;BME280;48717;55.556;37.816;2023-04-30T06:55:14;99685.81;;;12.56;41.31
62655;BME280;48717;55.556;37.816;2023-04-30T06:57:41;99686.97;;;12.31;41.24
62655;BME280;48717;55.556;37.816;2023-04-30T07:00:09;99683.63;;;12.09;42.12
62655;BME280;48717;55.556;37.816;2023-04-30T07:02:36;99675.75;;;11.99;42.62
62655;BME280;48717;55.556;37.816;2023-04-30T07:05:04;99673.22;;;11.90;41.77
62655;BME280;48717;55.556;37.816;2023-04-30T07:07:32;99662.47;;;12.10;40.57
62655;BME280;48717;55.556;37.816;2023-04-30T07:09:59;99650.19;;;12.05;39.35
62655;BME280;48717;55.556;37.816;2023-04-30T07:12:27;99656.41;;;12.00;39.84
62655;BME280;48717;55.556;37.816;2023-04-30T07:14:54;99660.72;;;12.14;38.56
62655;BME280;48717;55.556;37.816;2023-04-30T07:17:21;99642.22;;;12.14;37.68
62655;BME280;48717;55.556;37.816;2023-04-30T07:19:51;99644.00;;;12.09;37.81
62655;BME280;48717;55.556;37.816;2023-04-30T07:22:18;99645.06;;;11.86;36.40
62655;BME280;48717;55.556;37.816;2023-04-30T07:24:45;99624.13;;;11.66;37.15
62655;BME280;48717;55.556;37.816;2023-04-30T07:27:12;99621.69;;;11.39;37.38
62655;BME280;48717;55.556;37.816;2023-04-30T07:29:39;99625.28;;;11.29;39.06
62655;BME280;48717;55.556;37.816;2023-04-30T07:32:07;99625.94;;;11.57;38.31
62655;BME280;48717;55.556;37.816;2023-04-30T07:34:34;99600.34;;;11.64;38.20
62655;BME280;48717;55.556;37.816;2023-04-30T07:37:01;99609.75;;;11.96;38.72
62655;BME280;48717;55.556;37.816;2023-04-30T07:39:29;99587.75;;;11.94;38.20
62655;BME280;48717;55.556;37.816;2023-04-30T07:41:56;99588.53;;;12.07;38.02
62655;BME280;48717;55.556;37.816;2023-04-30T07:44:24;99571.09;;;11.87;38.70
62655;BME280;48717;55.556;37.816;2023-04-30T07:46:51;99587.13;;;11.69;38.68
62655;BME280;48717;55.556;37.816;2023-04-30T07:49:18;99588.84;;;11.74;39.59
62655;BME280;48717;55.556;37.816;2023-04-30T07:51:45;99574.81;;;11.69;40.25
62655;BME280;48717;55.556;37.816;2023-04-30T07:54:12;99572.22;;;11.60;40.44
62655;BME280;48717;55.556;37.816;2023-04-30T07:56:40;99574.91;;;11.58;40.20
62655;BME280;48717;55.556;37.816;2023-04-30T07:59:08;99559.97;;;11.56;40.55
62655;BME280;48717;55.556;37.816;2023-04-30T08:01:35;99551.19;;;11.52;40.34
62655;BME280;48717;55.556;37.816;2023-04-30T08:04:03;99551.13;;;11.58;40.75
62655;BME280;48717;55.556;37.816;2023-04-30T08:06:30;99540.59;;;11.54;39.87
62655;BME280;48717;55.556;37.816;2023-04-30T08:08:58;99535.25;;;11.60;39.35
62655;BME280;48717;55.556;37.816;2023-04-30T08:11:25;99524.00;;;11.41;40.04
62655;BME280;48717;55.556;37.816;2023-04-30T08:13:52;99526.69;;;11.33;39.81
62655;BME280;48717;55.556;37.816;2023-04-30T08:16:19;99507.41;;;11.25;39.55
62655;BME280;48717;55.556;37.816;2023-04-30T08:18:47;99508.28;;;11.28;39.97
62655;BME280;48717;55.556;37.816;2023-04-30T08:21:15;99505.63;;;11.30;39.02
62655;BME280;48717;55.556;37.816;2023-04-30T08:23:43;99495.97;;;11.27;39.02
62655;BME280;48717;55.556;37.816;2023-04-30T08:26:11;99492.44;;;11.31;38.93
62655;BME280;48717;55.556;37.816;2023-04-30T08:28:41;99494.91;;;11.48;38.46
62655;BME280;48717;55.556;37.816;2023-04-30T08:31:09;99486.09;;;11.46;38.06
62655;BME280;48717;55.556;37.816;2023-04-30T08:33:36;99460.75;;;11.30;37.76
62655;BME280;48717;55.556;37.816;2023-04-30T08:36:03;99468.63;;;11.33;38.44
62655;BME280;48717;55.556;37.816;2023-04-30T08:38:31;99473.91;;;11.36;39.44
62655;BME280;48717;55.556;37.816;2023-04-30T08:41:11;99482.72;;;11.32;39.00
62655;BME280;48717;55.556;37.816;2023-04-30T08:43:40;99463.59;;;11.08;39.55
62655;BME280;48717;55.556;37.816;2023-04-30T08:46:07;99465.31;;;11.12;39.92
62655;BME280;48717;55.556;37.816;2023-04-30T08:48:35;99470.72;;;10.93;39.87
62655;BME280;48717;55.556;37.816;2023-04-30T08:51:03;99467.16;;;11.01;39.93
62655;BME280;48717;55.556;37.816;2023-04-30T08:53:33;99468.91;;;11.02;40.49
62655;BME280;48717;55.556;37.816;2023-04-30T08:56:02;99455.78;;;10.99;41.34
62655;BME280;48717;55.556;37.816;2023-04-30T08:58:30;99447.72;;;11.11;40.93
62655;BME280;48717;55.556;37.816;2023-04-30T09:00:58;99449.50;;;11.09;41.22
62655;BME280;48717;55.556;37.816;2023-04-30T09:03:26;99446.78;;;11.20;40.73
62655;BME280;48717;55.556;37.816;2023-04-30T09:05:54;99421.31;;;11.14;41.38
62655;BME280;48717;55.556;37.816;2023-04-30T09:08:42;99439.69;;;11.23;40.41
62655;BME280;48717;55.556;37.816;2023-04-30T09:11:33;99424.66;;;11.32;41.83
62655;BME280;48717;55.556;37.816;2023-04-30T09:14:00;99419.25;;;11.44;40.45
62655;BME280;48717;55.556;37.816;2023-04-30T09:16:29;99419.16;;;11.54;41.11
62655;BME280;48717;55.556;37.816;2023-04-30T09:19:22;99395.16;;;11.71;39.47
62655;BME280;48717;55.556;37.816;2023-04-30T09:21:50;99417.00;;;11.87;39.28
62655;BME280;48717;55.556;37.816;2023-04-30T09:24:17;99405.38;;;12.00;38.73
62655;BME280;48717;55.556;37.816;2023-04-30T09:26:44;99400.94;;;12.06;39.24
62655;BME280;48717;55.556;37.816;2023-04-30T09:29:15;99406.00;;;12.20;38.83
62655;BME280;48717;55.556;37.816;2023-04-30T09:31:45;99366.84;;;11.84;38.64
62655;BME280;48717;55.556;37.816;2023-04-30T09:34:13;99375.59;;;11.86;38.82
62655;BME280;48717;55.556;37.816;2023-04-30T09:36:52;99391.16;;;12.11;38.94
62655;BME280;48717;55.556;37.816;2023-04-30T09:39:23;99391.25;;;12.01;39.88
62655;BME280;48717;55.556;37.816;2023-04-30T09:41:50;99392.09;;;12.07;38.42
62655;BME280;48717;55.556;37.816;2023-04-30T09:44:31;99387.47;;;12.23;38.35
62655;BME280;48717;55.556;37.816;2023-04-30T09:46:58;99390.25;;;12.12;38.56
62655;BME280;48717;55.556;37.816;2023-04-30T09:49:26;99363.97;;;11.99;38.56
62655;BME280;48717;55.556;37.816;2023-04-30T09:51:55;99357.84;;;11.97;38.80
62655;BME280;48717;55.556;37.816;2023-04-30T09:54:43;99369.13;;;12.10;38.99
62655;BME280;48717;55.556;37.816;2023-04-30T09:57:12;99360.50;;;11.97;38.43
62655;BME280;48717;55.556;37.816;2023-04-30T09:59:44;99376.59;;;11.79;39.80
62655;BME280;48717;55.556;37.816;2023-04-30T10:02:14;99318.91;;;11.47;39.47
62655;BME280;48717;55.556;37.816;2023-04-30T10:04:48;99367.91;;;11.70;39.56
62655;BME280;48717;55.556;37.816;2023-04-30T10:07:21;99376.66;;;11.72;39.38
62655;BME280;48717;55.556;37.816;2023-04-30T10:09:56;99392.56;;;11.69;39.74
62655;BME280;48717;55.556;37.816;2023-04-30T10:12:47;99383.78;;;11.67;40.29
62655;BME280;48717;55.556;37.816;2023-04-30T10:15:47;99377.69;;;11.60;40.65
62655;BME280;48717;55.556;37.816;2023-04-30T10:18:18;99380.06;;;11.84;40.24
62655;BME280;48717;55.556;37.816;2023-04-30T10:20:49;99357.28;;;11.73;40.19
62655;BME280;48717;55.556;37.816;2023-04-30T10:23:18;99367.75;;;11.83;39.57
62655;BME280;48717;55.556;37.816;2023-04-30T10:25:50;99374.81;;;11.81;40.62
62655;BME280;48717;55.556;37.816;2023-04-30T10:28:19;99371.22;;;11.85;40.12
62655;BME280;48717;55.556;37.816;2023-04-30T10:30:46;99366.06;;;11.75;40.75
62655;BME280;48717;55.556;37.816;2023-04-30T10:36:27;99373.72;;;11.97;40.24
62655;BME280;48717;55.556;37.816;2023-04-30T10:38:59;99366.72;;;11.92;40.38
62655;BME280;48717;55.556;37.816;2023-04-30T10:41:27;99379.78;;;12.06;40.54
62655;BME280;48717;55.556;37.816;2023-04-30T10:43:56;99371.88;;;12.02;40.24
62655;BME280;48717;55.556;37.816;2023-04-30T10:46:27;99369.22;;;12.02;40.55
62655;BME280;48717;55.556;37.816;2023-04-30T10:48:55;99370.97;;;12.04;40.29
62655;BME280;48717;55.556;37.816;2023-04-30T10:51:22;99360.56;;;11.91;40.49
62655;BME280;48717;55.556;37.816;2023-04-30T10:53:50;99366.66;;;11.98;40.56
62655;BME280;48717;55.556;37.816;2023-04-30T10:56:38;99359.72;;;11.89;40.99
62655;BME280;48717;55.556;37.816;2023-04-30T10:59:07;99367.53;;;11.98;40.75
62655;BME280;48717;55.556;37.816;2023-04-30T11:01:57;99367.53;;;11.97;40.99
62655;BME280;48717;55.556;37.816;2023-04-30T11:04:25;99342.81;;;12.02;41.42
62655;BME280;48717;55.556;37.816;2023-04-30T11:07:08;99342.81;;;12.06;41.28
62655;BME280;48717;55.556;37.816;2023-04-30T11:09:43;99342.63;;;12.18;40.94
62655;BME280;48717;55.556;37.816;2023-04-30T11:12:25;99305.84;;;11.99;40.73
62655;BME280;48717;55.556;37.816;2023-04-30T11:15:11;99299.78;;;11.93;40.65
62655;BME280;48717;55.556;37.816;2023-04-30T11:17:39;99311.03;;;12.09;40.95
62655;BME280;48717;55.556;37.816;2023-04-30T11:20:11;99270.84;;;11.85;41.27
62655;BME280;48717;55.556;37.816;2023-04-30T11:22:39;99276.94;;;11.90;40.99
62655;BME280;48717;55.556;37.816;2023-04-30T11:25:13;99297.06;;;12.00;40.98
62655;BME280;48717;55.556;37.816;2023-04-30T11:27:50;99248.06;;;11.78;41.12
62655;BME280;48717;55.556;37.816;2023-04-30T11:30:17;99281.28;;;11.94;41.24
62655;BME280;48717;55.556;37.816;2023-04-30T11:32:46;99257.78;;;11.75;41.78
62655;BME280;48717;55.556;37.816;2023-04-30T11:35:16;99269.41;;;11.62;41.96
62655;BME280;48717;55.556;37.816;2023-04-30T11:37:47;99295.84;;;11.59;41.55
62655;BME280;48717;55.556;37.816;2023-04-30T11:40:14;99286.22;;;11.55;42.26
62655;BME280;48717;55.556;37.816;2023-04-30T11:42:42;99290.66;;;11.56;42.82
62655;BME280;48717;55.556;37.816;2023-04-30T11:45:14;99297.66;;;11.57;42.01
62655;BME280;48717;55.556;37.816;2023-04-30T11:47:49;99276.53;;;11.57;42.36
62655;BME280;48717;55.556;37.816;2023-04-30T11:50:19;99267.88;;;11.45;41.84
62655;BME280;48717;55.556;37.816;2023-04-30T11:52:55;99277.53;;;11.46;42.48
62655;BME280;48717;55.556;37.816;2023-04-30T11:55:24;99259.19;;;11.37;41.34
62655;BME280;48717;55.556;37.816;2023-04-30T11:57:56;99270.53;;;11.44;41.30
62655;BME280;48717;55.556;37.816;2023-04-30T12:00:27;99241.75;;;11.25;41.58
62655;BME280;48717;55.556;37.816;2023-04-30T12:02:56;99276.00;;;11.31;41.97
62655;BME280;48717;55.556;37.816;2023-04-30T12:05:25;99241.97;;;11.08;41.86
62655;BME280;48717;55.556;37.816;2023-04-30T12:07:58;99266.41;;;11.22;42.34
62655;BME280;48717;55.556;37.816;2023-04-30T12:10:26;99245.47;;;11.10;42.42
62655;BME280;48717;55.556;37.816;2023-04-30T12:12:53;99270.06;;;11.12;42.50
62655;BME280;48717;55.556;37.816;2023-04-30T12:15:22;99263.09;;;11.08;42.08
62655;BME280;48717;55.556;37.816;2023-04-30T12:17:55;99263.19;;;10.99;42.96
62655;BME280;48717;55.556;37.816;2023-04-30T12:20:26;99275.47;;;11.03;43.27
62655;BME280;48717;55.556;37.816;2023-04-30T12:22:54;99275.53;;;10.93;43.17
62655;BME280;48717;55.556;37.816;2023-04-30T12:25:22;99279.97;;;10.93;44.10
62655;BME280;48717;55.556;37.816;2023-04-30T12:27:52;99278.16;;;10.96;43.86
62655;BME280;48717;55.556;37.816;2023-04-30T12:30:21;99283.53;;;10.89;43.71
62655;BME280;48717;55.556;37.816;2023-04-30T12:32:50;99293.13;;;10.96;44.46
62655;BME280;48717;55.556;37.816;2023-04-30T12:35:19;99282.53;;;10.97;43.98
62655;BME280;48717;55.556;37.816;2023-04-30T12:37:49;99275.59;;;10.90;44.24
62655;BME280;48717;55.556;37.816;2023-04-30T12:40:25;99270.31;;;10.92;44.01
62655;BME280;48717;55.556;37.816;2023-04-30T12:43:04;99247.66;;;10.70;44.66
62655;BME280;48717;55.556;37.816;2023-04-30T12:45:50;99290.50;;;10.93;45.43
62655;BME280;48717;55.556;37.816;2023-04-30T12:48:20;99247.66;;;10.70;45.77
62655;BME280;48717;55.556;37.816;2023-04-30T12:51:08;99287.06;;;10.86;46.14
62655;BME280;48717;55.556;37.816;2023-04-30T12:53:45;99279.16;;;10.86;46.06
62655;BME280;48717;55.556;37.816;2023-04-30T12:56:15;99284.47;;;10.80;45.40
62655;BME280;48717;55.556;37.816;2023-04-30T12:58:44;99287.16;;;10.77;45.54
62655;BME280;48717;55.556;37.816;2023-04-30T13:01:15;99282.75;;;10.77;45.38
62655;BME280;48717;55.556;37.816;2023-04-30T13:03:43;99268.81;;;10.67;46.46
62655;BME280;48717;55.556;37.816;2023-04-30T13:06:10;99273.13;;;10.75;46.86
62655;BME280;48717;55.556;37.816;2023-04-30T13:08:38;99272.19;;;10.79;46.33
62655;BME280;48717;55.556;37.816;2023-04-30T13:11:24;99267.03;;;10.69;46.28
62655;BME280;48717;55.556;37.816;2023-04-30T13:13:53;99265.25;;;10.72;46.52
62655;BME280;48717;55.556;37.816;2023-04-30T13:16:24;99271.38;;;10.72;46.81
62655;BME280;48717;55.556;37.816;2023-04-30T13:18:52;99259.97;;;10.72;46.40
62655;BME280;48717;55.556;37.816;2023-04-30T13:21:20;99240.69;;;10.66;47.46
62655;BME280;48717;55.556;37.816;2023-04-30T13:23:47;99240.69;;;10.66;45.94
62655;BME280;48717;55.556;37.816;2023-04-30T13:26:20;99225.84;;;10.56;46.08
62655;BME280;48717;55.556;37.816;2023-04-30T13:28:49;99245.94;;;10.66;45.73
62655;BME280;48717;55.556;37.816;2023-04-30T13:31:17;99247.75;;;10.64;46.51